Time;durP1;ratioP1;P1;durP2;ratioP2;P2;SDS_P1;SDS_P2;PMS_P1;PMS_P2;Temp;Humidity;BMP_temperature;BMP_pressure;BME280_temperature;BME280_humidity;BME280_pressure;Samples;Min_cycle;Max_cycle;Signal;HPM_P1;HPM_P2
2023/08/29 00:00:31;;;;;;;9.65;4.93;;;13.80;80.10;;;;;;4987269;28;20125;-84
2023/08/29 00:02:57;;;;;;;11.05;4.90;;;13.80;80.30;;;;;;4986120;28;20015;-82
2023/08/29 00:05:23;;;;;;;10.73;5.10;;;13.80;80.50;;;;;;4973299;28;20023;-84
2023/08/29 00:07:48;;;;;;;9.60;4.60;;;13.80;80.40;;;;;;4973836;28;20034;-82
2023/08/29 00:10:14;;;;;;;8.85;5.10;;;13.90;80.30;;;;;;4973758;28;20031;-84
2023/08/29 00:12:43;;;;;;;11.43;4.18;;;13.80;80.20;;;;;;4956663;28;20034;-84
2023/08/29 00:15:12;;;;;;;8.82;4.80;;;13.90;80.30;;;;;;4973756;28;20140;-84
2023/08/29 00:17:38;;;;;;;6.75;4.60;;;13.80;80.30;;;;;;4967228;28;20039;-82
2023/08/29 00:20:04;;;;;;;10.27;5.30;;;13.90;80.30;;;;;;4966927;28;20033;-81
2023/08/29 00:22:30;;;;;;;8.60;5.25;;;14.00;80.60;;;;;;4987062;28;20031;-82
2023/08/29 00:24:56;;;;;;;8.77;4.38;;;14.10;80.40;;;;;;4973993;28;20110;-84
2023/08/29 00:27:22;;;;;;;7.10;4.63;;;14.20;80.20;;;;;;4973475;28;20042;-83
2023/08/29 00:29:48;;;;;;;12.10;5.70;;;14.20;80.00;;;;;;4974811;28;20061;-84
2023/08/29 00:32:14;;;;;;;9.45;5.10;;;14.30;79.70;;;;;;4986476;28;20007;-82
2023/08/29 00:34:40;;;;;;;8.75;4.90;;;14.40;79.50;;;;;;4973399;28;20031;-84
2023/08/29 00:37:06;;;;;;;10.35;5.25;;;14.50;79.50;;;;;;4978645;28;20023;-82
2023/08/29 00:39:32;;;;;;;10.10;4.82;;;14.50;79.30;;;;;;4971053;28;20054;-81
2023/08/29 00:41:58;;;;;;;7.53;4.70;;;14.60;79.00;;;;;;4979054;28;20106;-82
2023/08/29 00:44:23;;;;;;;7.50;4.43;;;14.60;78.40;;;;;;4959847;28;20407;-82
2023/08/29 00:46:50;;;;;;;10.15;4.65;;;14.60;78.60;;;;;;4976721;28;20054;-82
2023/08/29 00:49:21;;;;;;;9.02;4.63;;;14.60;78.50;;;;;;4978296;28;20018;-82
2023/08/29 00:51:47;;;;;;;10.27;5.05;;;14.60;78.30;;;;;;4961108;28;20083;-83
2023/08/29 00:54:15;;;;;;;5.85;4.05;;;14.60;78.30;;;;;;4977929;28;20755;-81
2023/08/29 00:56:42;;;;;;;12.18;5.35;;;14.60;78.40;;;;;;4977526;28;20027;-83
2023/08/29 00:59:08;;;;;;;7.57;4.32;;;14.70;78.10;;;;;;4960271;28;20118;-82
2023/08/29 01:01:36;;;;;;;6.95;4.22;;;14.70;78.10;;;;;;4960362;28;20113;-83
2023/08/29 01:04:02;;;;;;;11.82;5.60;;;14.70;77.70;;;;;;4958247;29;20391;-82
2023/08/29 01:06:30;;;;;;;12.77;5.17;;;14.60;77.90;;;;;;4981457;28;20523;-82
2023/08/29 01:08:58;;;;;;;9.27;4.72;;;14.60;78.10;;;;;;4960505;28;20031;-83
2023/08/29 01:11:59;;;;;;;9.63;4.65;;;14.60;78.30;;;;;;4977223;28;20081;-82
2023/08/29 01:14:50;;;;;;;8.80;4.88;;;14.60;78.20;;;;;;4977100;28;20121;-83
2023/08/29 01:17:38;;;;;;;12.88;5.25;;;14.60;78.10;;;;;;4964321;28;20026;-82
2023/08/29 01:20:05;;;;;;;10.75;5.47;;;14.50;78.30;;;;;;4983876;28;20027;-82
2023/08/29 01:22:56;;;;;;;12.30;4.97;;;14.50;78.40;;;;;;4978304;28;20063;-82
2023/08/29 01:26:07;;;;;;;10.18;4.78;;;14.50;78.60;;;;;;4977214;28;20078;-83
2023/08/29 01:28:33;;;;;;;7.32;4.38;;;14.40;78.90;;;;;;4985985;28;20038;-83
2023/08/29 01:30:59;;;;;;;9.57;4.85;;;14.40;78.80;;;;;;4977205;28;20106;-83
2023/08/29 01:33:26;;;;;;;7.88;3.92;;;14.30;79.10;;;;;;4977460;28;20484;-83
2023/08/29 01:35:52;;;;;;;7.15;3.90;;;14.30;79.00;;;;;;4986040;28;20034;-83
2023/08/29 01:38:18;;;;;;;7.07;4.43;;;14.20;79.20;;;;;;4988354;28;20791;-82
2023/08/29 01:40:44;;;;;;;9.20;4.78;;;14.10;79.90;;;;;;4976543;28;20169;-83
2023/08/29 01:43:10;;;;;;;17.67;5.87;;;14.10;79.90;;;;;;4986037;28;20037;-83
2023/08/29 01:45:36;;;;;;;10.68;5.13;;;14.10;79.90;;;;;;4980182;28;20527;-82
2023/08/29 01:48:02;;;;;;;5.78;4.82;;;14.10;80.10;;;;;;4976528;28;20057;-84
2023/08/29 01:50:31;;;;;;;7.88;4.25;;;14.10;80.20;;;;;;4976832;28;20022;-83
2023/08/29 01:52:58;;;;;;;8.98;4.60;;;14.10;80.20;;;;;;4975784;28;20039;-85
2023/08/29 01:55:25;;;;;;;8.93;4.75;;;14.10;80.60;;;;;;4976459;28;20388;-83
2023/08/29 01:57:51;;;;;;;6.43;4.45;;;14.10;81.10;;;;;;4975135;28;20558;-83
2023/08/29 02:00:18;;;;;;;6.35;4.97;;;14.20;81.10;;;;;;4958723;28;20429;-82
2023/08/29 02:02:44;;;;;;;10.85;5.10;;;14.20;80.60;;;;;;4976480;28;20060;-84
2023/08/29 02:05:10;;;;;;;8.70;5.88;;;14.20;80.60;;;;;;4981329;28;20011;-84
2023/08/29 02:07:38;;;;;;;8.60;4.80;;;14.20;80.60;;;;;;4985667;28;20034;-84
2023/08/29 02:10:04;;;;;;;7.55;4.00;;;14.20;80.80;;;;;;4976137;28;20034;-84
2023/08/29 02:12:30;;;;;;;8.32;4.78;;;14.30;80.80;;;;;;4976344;28;20041;-83
2023/08/29 02:14:56;;;;;;;9.88;4.55;;;14.20;81.00;;;;;;4971266;28;20529;-85
2023/08/29 02:17:21;;;;;;;8.57;4.47;;;14.20;80.80;;;;;;4977323;28;20022;-83
2023/08/29 02:19:47;;;;;;;6.72;4.85;;;14.20;80.80;;;;;;4979140;28;20109;-84
2023/08/29 02:22:13;;;;;;;18.75;5.82;;;14.20;80.80;;;;;;4991285;28;20078;-84
2023/08/29 02:24:39;;;;;;;10.77;5.25;;;14.20;81.10;;;;;;4959082;28;20110;-84
2023/08/29 02:27:05;;;;;;;9.90;5.43;;;14.20;81.40;;;;;;4974728;28;20023;-85
2023/08/29 02:29:31;;;;;;;9.35;4.75;;;14.20;81.20;;;;;;4958250;28;20023;-85
2023/08/29 02:31:57;;;;;;;9.37;4.77;;;14.20;81.20;;;;;;4975769;28;20050;-85
2023/08/29 02:34:24;;;;;;;8.13;4.18;;;14.20;81.50;;;;;;4975541;28;20042;-84
2023/08/29 02:36:51;;;;;;;9.48;5.43;;;14.20;81.40;;;;;;4975730;28;20499;-85
2023/08/29 02:39:16;;;;;;;12.75;5.63;;;14.20;81.40;;;;;;4958082;28;20026;-84
2023/08/29 02:41:42;;;;;;;8.13;4.45;;;14.30;81.30;;;;;;4975253;28;20019;-84
2023/08/29 02:44:08;;;;;;;15.88;5.70;;;14.30;81.60;;;;;;4972672;28;20523;-84
2023/08/29 02:46:34;;;;;;;11.85;5.80;;;14.40;81.60;;;;;;4958868;28;20026;-84
2023/08/29 02:49:00;;;;;;;17.15;6.63;;;14.40;81.30;;;;;;4975683;28;20022;-84
2023/08/29 02:51:25;;;;;;;24.30;7.07;;;14.40;81.10;;;;;;4980920;28;20066;-84
2023/08/29 02:53:51;;;;;;;16.20;6.20;;;14.50;80.90;;;;;;4966839;28;20057;-84
2023/08/29 02:56:19;;;;;;;15.57;5.18;;;14.50;80.90;;;;;;4975741;28;20022;-84
2023/08/29 02:58:46;;;;;;;17.55;5.22;;;14.50;80.70;;;;;;4957880;28;20026;-84
2023/08/29 03:01:12;;;;;;;;;;;14.60;80.80;;;;;;4973706;28;20085;-83
2023/08/29 03:03:38;;;;;;;15.35;5.43;;;14.60;80.60;;;;;;4975484;28;20326;-83
2023/08/29 03:06:05;;;;;;;5.60;4.40;;;14.60;80.80;;;;;;4975449;28;20102;-84
2023/08/29 03:08:31;;;;;;;16.83;5.70;;;14.60;80.60;;;;;;4975131;28;20102;-85
2023/08/29 03:11:01;;;;;;;13.10;5.85;;;14.70;80.50;;;;;;4990882;28;20030;-84
2023/08/29 03:13:27;;;;;;;9.82;5.93;;;14.70;80.50;;;;;;4984752;28;20397;-83
2023/08/29 03:15:52;;;;;;;14.43;5.97;;;14.70;80.70;;;;;;4975035;28;20019;-84
2023/08/29 03:18:18;;;;;;;17.10;6.43;;;14.80;80.30;;;;;;4975626;28;20031;-84
2023/08/29 03:20:45;;;;;;;22.88;6.57;;;14.70;80.40;;;;;;4987394;28;20026;-84
2023/08/29 03:23:14;;;;;;;24.17;7.65;;;14.80;80.80;;;;;;4974555;28;20088;-84
2023/08/29 03:25:40;;;;;;;18.77;7.35;;;14.80;80.50;;;;;;4988510;28;20011;-85
2023/08/29 03:28:06;;;;;;;13.65;6.00;;;14.80;80.60;;;;;;4987288;28;20035;-86
2023/08/29 03:30:32;;;;;;;21.45;7.72;;;14.80;80.40;;;;;;4977887;28;20015;-84
2023/08/29 03:32:58;;;;;;;16.42;6.80;;;14.80;81.20;;;;;;4981098;28;20039;-84
2023/08/29 03:35:23;;;;;;;20.00;6.22;;;14.80;80.60;;;;;;4988367;28;20074;-83
2023/08/29 03:37:49;;;;;;;20.30;6.43;;;14.80;80.60;;;;;;4989536;28;20054;-85
2023/08/29 03:40:15;;;;;;;18.00;6.20;;;14.80;80.50;;;;;;4985579;28;20022;-84
2023/08/29 03:42:41;;;;;;;15.85;6.55;;;14.80;81.00;;;;;;4981012;28;20026;-85
2023/08/29 03:45:10;;;;;;;22.58;7.63;;;14.80;81.00;;;;;;4982983;28;20026;-85
2023/08/29 03:47:37;;;;;;;36.03;8.02;;;14.80;80.80;;;;;;4974489;28;20014;-85
2023/08/29 03:50:03;;;;;;;13.75;6.72;;;14.90;80.80;;;;;;4974602;28;20101;-85
2023/08/29 03:52:29;;;;;;;22.45;7.00;;;15.00;80.60;;;;;;4973711;28;20086;-86
2023/08/29 03:54:56;;;;;;;17.27;7.30;;;15.00;80.50;;;;;;4976604;28;20464;-86
2023/08/29 03:57:27;;;;;;;20.77;6.97;;;15.10;80.30;;;;;;4979464;28;20472;-85
2023/08/29 03:59:53;;;;;;;14.32;6.18;;;15.20;80.40;;;;;;4962204;28;20034;-84
2023/08/29 04:02:20;;;;;;;11.73;6.43;;;15.20;80.00;;;;;;4982213;28;20019;-84
2023/08/29 04:04:50;;;;;;;32.45;8.80;;;15.30;79.40;;;;;;4977420;28;20023;-85
2023/08/29 04:07:16;;;;;;;15.57;7.07;;;15.40;79.30;;;;;;4975457;28;20023;-85
2023/08/29 04:09:42;;;;;;;15.15;6.20;;;15.50;79.20;;;;;;4988153;28;20074;-83
2023/08/29 04:12:10;;;;;;;24.50;7.88;;;15.60;78.30;;;;;;4992071;28;20046;-85
2023/08/29 04:14:35;;;;;;;11.30;6.00;;;15.60;80.40;;;;;;4995070;28;20038;-84
2023/08/29 04:17:01;;;;;;;17.88;7.13;;;15.70;78.60;;;;;;4962897;28;20027;-85
2023/08/29 04:19:27;;;;;;;14.15;6.13;;;15.70;78.50;;;;;;4990415;28;20038;-84
2023/08/29 04:21:53;;;;;;;38.83;8.77;;;15.90;78.10;;;;;;4993874;28;20026;-85
2023/08/29 04:24:19;;;;;;;18.38;5.85;;;15.90;77.90;;;;;;4998329;28;20026;-86
2023/08/29 04:26:44;;;;;;;16.52;7.10;;;15.90;77.20;;;;;;4977595;28;20467;-84
2023/08/29 04:29:10;;;;;;;29.70;10.32;;;16.00;77.50;;;;;;4977757;28;20074;-84
2023/08/29 04:31:36;;;;;;;14.68;6.40;;;16.10;77.60;;;;;;4958121;28;20050;-84
2023/08/29 04:34:02;;;;;;;15.70;6.78;;;16.20;77.00;;;;;;4957145;28;20050;-84
2023/08/29 04:36:27;;;;;;;16.42;6.85;;;16.40;77.30;;;;;;4984802;28;20428;-83
2023/08/29 04:38:53;;;;;;;37.17;10.32;;;16.50;76.90;;;;;;4977463;28;20086;-85
2023/08/29 04:41:19;;;;;;;22.98;7.35;;;16.70;76.30;;;;;;4974867;28;20026;-87
2023/08/29 04:43:45;;;;;;;21.02;6.75;;;16.80;75.20;;;;;;4975324;28;20038;-88
2023/08/29 04:46:11;;;;;;;17.55;6.32;;;16.80;75.30;;;;;;4996214;28;20003;-87
2023/08/29 04:48:37;;;;;;;12.15;6.15;;;17.00;74.60;;;;;;4980407;28;20034;-87
2023/08/29 04:51:05;;;;;;;12.25;5.80;;;17.00;74.00;;;;;;4974682;28;20023;-84
2023/08/29 04:53:32;;;;;;;14.80;6.32;;;16.80;74.30;;;;;;4968354;28;20054;-88
2023/08/29 04:56:00;;;;;;;16.58;6.85;;;16.80;74.70;;;;;;4958484;28;20026;-86
2023/08/29 04:58:26;;;;;;;16.38;6.60;;;16.80;76.10;;;;;;4956621;28;20030;-85
2023/08/29 05:00:53;;;;;;;15.25;5.68;;;16.90;74.20;;;;;;4973739;28;20030;-87
2023/08/29 05:03:18;;;;;;;16.35;5.45;;;16.80;73.60;;;;;;4977422;28;20071;-85
2023/08/29 05:05:48;;;;;;;10.65;5.38;;;16.70;74.00;;;;;;4966882;28;20039;-86
2023/08/29 05:08:13;;;;;;;15.02;6.35;;;16.50;73.80;;;;;;4956447;28;20443;-84
2023/08/29 05:10:40;;;;;;;15.63;6.13;;;16.40;75.30;;;;;;4950729;29;20035;-84
2023/08/29 05:13:06;;;;;;;10.30;5.63;;;16.50;74.60;;;;;;4949895;28;20034;-84
2023/08/29 05:15:32;;;;;;;21.70;7.75;;;16.60;74.70;;;;;;4974283;28;20277;-84
2023/08/29 05:17:58;;;;;;;13.90;6.18;;;16.70;74.90;;;;;;4976452;28;20034;-85
2023/08/29 05:20:24;;;;;;;14.20;6.50;;;16.80;73.80;;;;;;4979268;28;20027;-83
2023/08/29 05:22:51;;;;;;;23.27;7.47;;;16.80;73.70;;;;;;4963097;28;20027;-83
2023/08/29 05:25:17;;;;;;;21.00;7.57;;;16.80;74.00;;;;;;4957103;28;20035;-86
2023/08/29 05:27:43;;;;;;;17.20;6.30;;;16.90;74.00;;;;;;4964358;28;20563;-85
2023/08/29 05:30:09;;;;;;;14.30;7.07;;;17.00;74.30;;;;;;4974662;28;20030;-86
2023/08/29 05:32:38;;;;;;;12.35;6.75;;;17.00;74.10;;;;;;4975812;28;20027;-84
2023/08/29 05:35:05;;;;;;;20.30;8.35;;;17.00;73.50;;;;;;4977518;28;20113;-87
2023/08/29 05:37:30;;;;;;;19.60;7.20;;;17.00;74.40;;;;;;4961157;28;20089;-85
2023/08/29 05:39:56;;;;;;;25.85;7.95;;;17.00;74.20;;;;;;4980388;28;20030;-87
2023/08/29 05:42:22;;;;;;;17.38;6.85;;;17.20;75.40;;;;;;4978125;28;20023;-85
2023/08/29 05:44:48;;;;;;;13.70;6.55;;;17.20;73.50;;;;;;4976916;28;20772;-85
2023/08/29 05:47:14;;;;;;;24.55;7.70;;;17.20;73.10;;;;;;4962290;28;20516;-86
2023/08/29 05:49:40;;;;;;;30.08;10.07;;;17.20;73.80;;;;;;4956494;28;20043;-86
2023/08/29 05:52:06;;;;;;;24.40;8.43;;;17.30;73.90;;;;;;4951830;28;20023;-87
2023/08/29 05:54:36;;;;;;;21.27;7.55;;;17.40;73.50;;;;;;4975014;28;20034;-87
2023/08/29 05:57:02;;;;;;;24.75;8.65;;;17.40;73.60;;;;;;4978485;28;20023;-87
2023/08/29 05:59:30;;;;;;;31.83;9.50;;;17.40;73.90;;;;;;4960666;28;20079;-87
2023/08/29 06:01:56;;;;;;;24.50;7.88;;;17.40;72.90;;;;;;4969439;28;20031;-87
2023/08/29 06:04:22;;;;;;;21.48;7.85;;;17.30;73.60;;;;;;4976964;28;20023;-88
2023/08/29 06:06:49;;;;;;;12.38;6.18;;;17.30;73.20;;;;;;4976089;28;20030;-87
2023/08/29 06:09:15;;;;;;;18.88;7.65;;;17.30;72.90;;;;;;4974002;28;20050;-85
2023/08/29 06:11:41;;;;;;;20.88;7.53;;;17.20;73.70;;;;;;4976777;28;20023;-86
2023/08/29 06:14:07;;;;;;;8.45;5.65;;;17.20;73.80;;;;;;4947494;28;20086;-84
2023/08/29 06:16:32;;;;;;;12.85;5.82;;;17.30;73.40;;;;;;4943160;28;20051;-85
2023/08/29 06:18:58;;;;;;;22.67;7.28;;;17.10;73.70;;;;;;4941272;29;20043;-85
2023/08/29 06:21:24;;;;;;;17.65;7.25;;;17.00;74.50;;;;;;4972461;28;20039;-86
2023/08/29 06:23:50;;;;;;;14.13;6.97;;;17.00;74.50;;;;;;4961120;28;20035;-86
2023/08/29 06:26:16;;;;;;;16.95;7.07;;;16.90;74.60;;;;;;4944975;29;20030;-84
2023/08/29 06:28:42;;;;;;;14.80;6.93;;;16.70;75.40;;;;;;4952740;28;20091;-82
2023/08/29 06:31:08;;;;;;;28.50;11.27;;;16.60;75.90;;;;;;4951930;28;20047;-86
2023/08/29 06:33:34;;;;;;;26.67;9.45;;;16.60;76.30;;;;;;4934349;28;20047;-86
2023/08/29 06:36:00;;;;;;;16.15;7.60;;;16.70;76.60;;;;;;4938780;29;20026;-85
2023/08/29 06:38:26;;;;;;;30.25;8.88;;;16.80;76.30;;;;;;4943585;28;20032;-87
2023/08/29 06:40:58;;;;;;;12.70;7.10;;;16.90;76.50;;;;;;4950415;28;20110;-84
2023/08/29 06:43:25;;;;;;;19.15;8.25;;;17.00;75.80;;;;;;4945456;29;20047;-84
2023/08/29 06:45:51;;;;;;;18.53;6.63;;;16.90;76.00;;;;;;4956759;28;20027;-85
2023/08/29 06:48:17;;;;;;;14.50;7.57;;;17.00;75.90;;;;;;4959238;28;20050;-85
2023/08/29 06:50:43;;;;;;;16.95;6.90;;;16.90;75.80;;;;;;4958356;28;20023;-88
2023/08/29 06:53:09;;;;;;;19.15;7.47;;;16.80;76.30;;;;;;4958065;28;20050;-85
2023/08/29 06:55:35;;;;;;;13.80;6.45;;;16.80;76.60;;;;;;4954623;28;20042;-85
2023/08/29 06:58:04;;;;;;;25.50;9.73;;;16.80;76.40;;;;;;4958727;28;20411;-85
2023/08/29 07:00:34;;;;;;;47.63;13.02;;;17.00;76.80;;;;;;4975597;28;20026;-84
2023/08/29 07:03:00;;;;;;;19.42;9.00;;;17.10;76.80;;;;;;4990743;28;20018;-86
2023/08/29 07:05:26;;;;;;;20.73;7.45;;;17.30;76.30;;;;;;4988403;28;20078;-84
2023/08/29 07:07:52;;;;;;;25.02;8.45;;;17.40;76.10;;;;;;4970577;28;20027;-85
2023/08/29 07:10:18;;;;;;;63.42;13.68;;;17.50;76.00;;;;;;4974995;28;20073;-86
2023/08/29 07:12:44;;;;;;;19.42;8.80;;;17.60;75.90;;;;;;4974590;28;20085;-84
2023/08/29 07:15:10;;;;;;;20.90;8.98;;;17.80;75.90;;;;;;4957771;28;20030;-84
2023/08/29 07:17:36;;;;;;;32.50;10.93;;;17.90;74.70;;;;;;4975957;28;20023;-85
2023/08/29 07:20:08;;;;;;;19.77;8.45;;;18.10;74.40;;;;;;4977583;28;20050;-84
2023/08/29 07:22:36;;;;;;;16.15;7.57;;;18.20;73.80;;;;;;4976093;28;20404;-84
2023/08/29 07:25:03;;;;;;;22.02;7.65;;;18.20;73.70;;;;;;4958257;28;20022;-84
2023/08/29 07:27:32;;;;;;;27.80;9.57;;;18.30;73.50;;;;;;4957218;28;20023;-85
2023/08/29 07:29:57;;;;;;;19.35;8.10;;;18.30;73.70;;;;;;4957999;28;20126;-85
2023/08/29 07:32:23;;;;;;;20.88;7.50;;;18.40;74.00;;;;;;4976260;28;20461;-84
2023/08/29 07:34:50;;;;;;;12.68;7.90;;;18.30;73.90;;;;;;4957457;28;20035;-86
2023/08/29 07:37:16;;;;;;;16.65;7.82;;;18.40;73.60;;;;;;4991540;28;20022;-88
2023/08/29 07:39:43;;;;;;;28.25;9.13;;;18.40;73.80;;;;;;4986312;28;20027;-87
2023/08/29 07:42:09;;;;;;;24.20;8.73;;;18.50;73.60;;;;;;4975410;28;20062;-85
2023/08/29 07:44:34;;;;;;;24.38;8.20;;;18.60;73.40;;;;;;4973292;28;20935;-87
2023/08/29 07:47:01;;;;;;;14.32;7.43;;;18.70;73.30;;;;;;4992292;28;20379;-86
2023/08/29 07:49:27;;;;;;;13.80;6.53;;;18.70;72.70;;;;;;4976420;28;20034;-87
2023/08/29 07:51:54;;;;;;;25.23;8.82;;;18.70;72.30;;;;;;4957808;28;20518;-86
2023/08/29 07:54:21;;;;;;;41.13;11.85;;;18.70;72.70;;;;;;4975582;28;20042;-86
2023/08/29 07:56:47;;;;;;;41.88;12.63;;;18.60;72.70;;;;;;4964497;28;20015;-86
2023/08/29 07:59:12;;;;;;;16.83;7.70;;;18.80;72.90;;;;;;4969113;28;20034;-87
2023/08/29 08:01:39;;;;;;;25.70;9.23;;;18.80;72.30;;;;;;4958745;28;20022;-86
2023/08/29 08:04:05;;;;;;;22.10;7.93;;;18.70;72.40;;;;;;4973821;28;20035;-86
2023/08/29 08:06:31;;;;;;;19.58;8.00;;;18.70;72.40;;;;;;4957217;28;20058;-86
2023/08/29 08:08:57;;;;;;;16.30;8.40;;;18.50;72.70;;;;;;4956529;28;20086;-86
2023/08/29 08:11:25;;;;;;;17.15;8.25;;;18.40;73.60;;;;;;4974063;28;20626;-84
2023/08/29 08:13:51;;;;;;;20.00;8.35;;;18.40;73.50;;;;;;4957234;28;20054;-86
2023/08/29 08:16:17;;;;;;;21.83;8.93;;;18.40;73.90;;;;;;4957709;28;20418;-87
2023/08/29 08:18:43;;;;;;;23.17;9.38;;;18.40;73.80;;;;;;4956998;28;20023;-85
2023/08/29 08:21:09;;;;;;;24.70;10.95;;;18.30;74.20;;;;;;4973461;28;20034;-87
2023/08/29 08:23:34;;;;;;;35.00;11.73;;;18.20;74.50;;;;;;4973472;28;20027;-85
2023/08/29 08:26:00;;;;;;;27.48;11.88;;;18.20;74.80;;;;;;4956595;28;20086;-85
2023/08/29 08:28:27;;;;;;;40.38;12.27;;;18.10;74.90;;;;;;4956141;28;20027;-87
2023/08/29 08:30:52;;;;;;;14.40;7.40;;;18.10;74.90;;;;;;4974325;28;20078;-86
2023/08/29 08:33:18;;;;;;;33.13;11.98;;;18.00;74.70;;;;;;4973952;28;20747;-88
2023/08/29 08:35:44;;;;;;;27.83;9.23;;;17.90;75.60;;;;;;4956506;28;20026;-87
2023/08/29 08:38:11;;;;;;;24.35;9.32;;;17.80;76.30;;;;;;4972480;28;20480;-86
2023/08/29 08:40:38;;;;;;;40.08;11.82;;;17.80;76.70;;;;;;4956038;28;20027;-84
2023/08/29 08:43:05;;;;;;;46.00;14.02;;;17.90;76.60;;;;;;4974637;28;20042;-90
2023/08/29 08:45:32;;;;;;;26.15;9.55;;;17.90;76.50;;;;;;4956546;28;20079;-86
2023/08/29 08:48:02;;;;;;;25.40;9.47;;;17.90;76.60;;;;;;4973658;28;20046;-86
2023/08/29 08:50:29;;;;;;;26.10;9.93;;;17.90;76.10;;;;;;4958756;28;20332;-86
2023/08/29 08:52:58;;;;;;;31.70;13.07;;;17.90;76.20;;;;;;4956277;28;20498;-85
2023/08/29 08:55:25;;;;;;;29.65;10.27;;;17.90;76.10;;;;;;4958235;28;20063;-85
2023/08/29 08:57:52;;;;;;;49.67;12.50;;;18.00;76.10;;;;;;4958904;28;20439;-87
2023/08/29 09:00:19;;;;;;;39.80;10.63;;;18.00;76.20;;;;;;4961135;28;20019;-84
2023/08/29 09:02:46;;;;;;;55.80;25.10;;;18.00;76.50;;;;;;4957155;28;20045;-86
2023/08/29 09:05:14;;;;;;;36.53;12.95;;;18.00;76.40;;;;;;4971752;28;20026;-85
2023/08/29 09:07:43;;;;;;;20.63;8.90;;;18.00;76.00;;;;;;4957529;28;20567;-85
2023/08/29 09:10:10;;;;;;;26.88;10.60;;;18.10;76.20;;;;;;4963761;28;20049;-84
2023/08/29 09:12:48;;;;;;;45.25;12.93;;;18.20;75.90;;;;;;4979792;28;20030;-85
2023/08/29 09:15:18;;;;;;;37.50;10.82;;;18.40;75.60;;;;;;4977355;28;20042;-86
2023/08/29 09:17:45;;;;;;;55.78;16.30;;;18.40;75.10;;;;;;4979116;28;20062;-86
2023/08/29 09:20:11;;;;;;;44.27;13.67;;;18.50;75.00;;;;;;4986778;28;20034;-86
2023/08/29 09:22:41;;;;;;;37.88;11.77;;;18.50;75.00;;;;;;4978675;28;20033;-85
2023/08/29 09:25:07;;;;;;;18.88;8.77;;;18.60;75.20;;;;;;4968242;28;20049;-84
2023/08/29 09:27:40;;;;;;;28.25;9.65;;;18.60;74.40;;;;;;4976028;28;20385;-86
2023/08/29 09:30:14;;;;;;;31.33;9.52;;;18.80;73.90;;;;;;4978912;28;20035;-86
2023/08/29 09:32:48;;;;;;;15.93;8.80;;;18.80;74.00;;;;;;4968482;28;20047;-86
2023/08/29 09:35:15;;;;;;;20.23;9.23;;;18.70;74.00;;;;;;4988325;28;20031;-86
2023/08/29 09:37:53;;;;;;;18.45;7.72;;;18.60;74.40;;;;;;4987611;28;20021;-86
2023/08/29 09:40:20;;;;;;;17.98;7.65;;;18.60;74.10;;;;;;4979514;28;20050;-85
2023/08/29 09:43:13;;;;;;;22.05;9.20;;;18.40;74.50;;;;;;4959618;28;20023;-86
2023/08/29 09:45:39;;;;;;;20.10;9.18;;;18.50;74.90;;;;;;4955110;28;20074;-86
2023/08/29 09:48:09;;;;;;;17.08;7.57;;;18.50;74.90;;;;;;4976434;28;20077;-85
2023/08/29 09:50:38;;;;;;;23.20;8.52;;;18.60;74.40;;;;;;4973910;28;20419;-85
2023/08/29 09:53:15;;;;;;;17.05;8.13;;;18.50;74.30;;;;;;4989357;28;20137;-86
2023/08/29 09:55:48;;;;;;;27.95;8.93;;;18.40;75.10;;;;;;4962037;28;20034;-86
2023/08/29 09:58:29;;;;;;;44.70;11.10;;;18.40;75.30;;;;;;4961895;28;20031;-87
2023/08/29 10:01:00;;;;;;;37.78;10.43;;;18.60;75.20;;;;;;4979173;28;20030;-85
2023/08/29 10:03:26;;;;;;;22.67;8.93;;;19.00;74.90;;;;;;4959255;28;20054;-86
2023/08/29 10:05:59;;;;;;;26.25;10.20;;;19.30;73.30;;;;;;4986511;28;20046;-85
2023/08/29 10:08:31;;;;;;;62.22;15.13;;;19.40;72.40;;;;;;4969302;28;20023;-86
2023/08/29 10:10:59;;;;;;;33.30;10.38;;;19.40;72.30;;;;;;4989642;28;20019;-85
2023/08/29 10:13:25;;;;;;;14.00;7.20;;;19.40;72.40;;;;;;4960937;28;20034;-85
2023/08/29 10:15:52;;;;;;;21.75;7.60;;;19.30;71.80;;;;;;4976448;28;20034;-84
2023/08/29 10:18:19;;;;;;;20.88;7.68;;;18.90;72.40;;;;;;4958565;28;20058;-86
2023/08/29 10:20:46;;;;;;;49.38;13.95;;;18.70;73.60;;;;;;4958435;28;20070;-86
2023/08/29 10:23:15;;;;;;;29.90;10.60;;;18.60;74.30;;;;;;4976107;28;20098;-85
2023/08/29 10:25:42;;;;;;;28.20;9.73;;;18.60;74.60;;;;;;4959223;28;20444;-84
2023/08/29 10:28:12;;;;;;;42.28;15.38;;;18.60;74.70;;;;;;4977101;28;20026;-85
2023/08/29 10:30:54;;;;;;;13.68;9.10;;;18.60;74.10;;;;;;4976431;28;20490;-85
2023/08/29 10:33:22;;;;;;;22.25;9.35;;;18.60;74.00;;;;;;4975988;28;20122;-85
2023/08/29 10:36:18;;;;;;;;;;;;;;;;;;;;;
2023/08/29 10:39:02;;;;;;;34.83;11.07;;;18.80;74.30;;;;;;4972236;28;20034;-87
2023/08/29 10:41:46;;;;;;;36.42;10.75;;;18.90;73.60;;;;;;4976460;28;20058;-86
2023/08/29 10:44:53;;;;;;;18.13;8.05;;;18.90;73.50;;;;;;4976489;28;20034;-87
2023/08/29 10:47:30;;;;;;;19.08;7.47;;;19.00;73.30;;;;;;4975577;28;20109;-85
2023/08/29 10:50:05;;;;;;;18.52;7.45;;;19.00;73.30;;;;;;4975842;28;20037;-85
2023/08/29 10:52:41;;;;;;;19.02;7.60;;;18.80;72.90;;;;;;4974531;28;20031;-87
2023/08/29 10:55:24;;;;;;;17.95;6.78;;;18.80;73.60;;;;;;4985592;28;20034;-86
2023/08/29 10:57:51;;;;;;;16.95;7.55;;;18.90;73.40;;;;;;4990992;28;20031;-85
2023/08/29 11:00:34;;;;;;;16.00;7.95;;;18.90;73.10;;;;;;4976011;28;20379;-84
2023/08/29 11:03:00;;;;;;;19.60;8.73;;;18.90;73.30;;;;;;4965144;28;20043;-84
2023/08/29 11:05:27;;;;;;;23.50;8.77;;;18.90;73.40;;;;;;4976173;28;20018;-85
2023/08/29 11:07:53;;;;;;;18.93;7.80;;;18.90;73.20;;;;;;4974712;28;20049;-87
2023/08/29 11:10:22;;;;;;;22.92;8.57;;;18.90;73.50;;;;;;4988670;28;20686;-86
2023/08/29 11:13:11;;;;;;;17.98;7.40;;;18.80;73.60;;;;;;4975512;28;20034;-84
2023/08/29 11:15:49;;;;;;;16.77;7.40;;;18.90;73.80;;;;;;4961692;28;20035;-86
2023/08/29 11:18:21;;;;;;;12.85;5.88;;;18.80;73.70;;;;;;4957756;28;20086;-85
2023/08/29 11:20:47;;;;;;;17.30;9.10;;;18.70;73.90;;;;;;4958091;28;20026;-87
2023/08/29 11:23:14;;;;;;;40.80;11.05;;;18.50;74.60;;;;;;4975439;28;20097;-87
2023/08/29 11:25:40;;;;;;;15.35;7.40;;;18.60;75.30;;;;;;4958753;28;20119;-87
2023/08/29 11:28:06;;;;;;;14.25;6.57;;;18.70;74.90;;;;;;4985284;28;20034;-85
2023/08/29 11:30:33;;;;;;;28.30;9.75;;;18.70;74.70;;;;;;4984630;28;20480;-88
2023/08/29 11:32:59;;;;;;;33.17;11.73;;;18.70;74.90;;;;;;4975233;28;20166;-84
2023/08/29 11:35:28;;;;;;;19.27;7.63;;;18.80;75.30;;;;;;4957909;28;20508;-85
2023/08/29 11:37:54;;;;;;;20.05;8.38;;;18.80;74.80;;;;;;4958782;28;20086;-86
2023/08/29 11:40:20;;;;;;;45.20;12.10;;;18.90;74.90;;;;;;4975544;28;20023;-85
2023/08/29 11:42:46;;;;;;;33.33;9.50;;;18.90;75.00;;;;;;4974630;28;20106;-85
2023/08/29 11:45:14;;;;;;;18.33;7.78;;;19.00;74.90;;;;;;4958187;28;20466;-87
2023/08/29 11:47:41;;;;;;;24.95;7.60;;;19.00;74.30;;;;;;4957285;28;20078;-87
2023/08/29 11:50:12;;;;;;;26.02;9.38;;;19.00;74.00;;;;;;4958735;28;20026;-86
2023/08/29 11:52:39;;;;;;;26.85;10.07;;;19.00;74.30;;;;;;4958971;28;20062;-86
2023/08/29 11:55:10;;;;;;;25.98;9.15;;;18.90;74.60;;;;;;4974381;28;20022;-86
2023/08/29 11:57:38;;;;;;;18.90;7.45;;;18.90;74.70;;;;;;4969197;28;20026;-86
2023/08/29 12:00:08;;;;;;;19.67;8.50;;;18.90;74.90;;;;;;4977994;28;20034;-84
2023/08/29 12:02:34;;;;;;;22.70;7.40;;;18.80;75.20;;;;;;4962904;28;20519;-86
2023/08/29 12:05:00;;;;;;;13.23;6.35;;;18.80;75.10;;;;;;4979604;28;20018;-85
2023/08/29 12:07:32;;;;;;;19.30;7.55;;;18.60;75.60;;;;;;4977094;28;20109;-87
2023/08/29 12:10:10;;;;;;;27.27;9.35;;;18.40;76.30;;;;;;4959384;28;20506;-86
2023/08/29 12:12:40;;;;;;;13.38;6.95;;;18.30;76.90;;;;;;4982679;28;20030;-86
2023/08/29 12:15:10;;;;;;;16.02;8.07;;;18.20;77.30;;;;;;4973888;28;20022;-85
2023/08/29 12:17:40;;;;;;;13.15;7.10;;;18.20;77.60;;;;;;4957473;28;20111;-84
2023/08/29 12:20:21;;;;;;;23.60;8.10;;;18.20;77.60;;;;;;4978765;28;20387;-85
2023/08/29 12:22:56;;;;;;;31.65;13.88;;;18.10;78.20;;;;;;4957341;28;20027;-86
2023/08/29 12:29:20;;;;;;;;;;;;;;;;;;;;;
2023/08/29 12:31:50;;;;;;;13.85;8.20;;;18.50;78.70;;;;;;4963408;28;20053;-85
2023/08/29 12:34:16;;;;;;;47.05;20.25;;;18.50;78.60;;;;;;4960393;28;20033;-87
2023/08/29 12:36:42;;;;;;;25.50;10.20;;;18.50;79.30;;;;;;4974398;28;20075;-86
2023/08/29 12:39:09;;;;;;;26.02;10.43;;;18.60;79.80;;;;;;4956490;28;20031;-86
2023/08/29 12:41:36;;;;;;;18.38;8.85;;;18.50;80.20;;;;;;4957714;28;20074;-85
2023/08/29 12:44:03;;;;;;;20.63;10.63;;;18.60;80.20;;;;;;4960179;28;20067;-86
2023/08/29 12:46:30;;;;;;;15.57;8.68;;;18.50;80.40;;;;;;4965938;28;20038;-85
2023/08/29 12:48:56;;;;;;;17.60;10.05;;;18.50;80.90;;;;;;4974218;28;20042;-86